ADDS TAF Board (Experimental) INFO Settings
IDs: Format: Expanded Condensed

KDEN - Denver Intl, CO, US

Issued at 2058 UTC 12 Feb 2016
Updated at: 2225 UTC 12 Feb 2016
Time2153Z 12/23Z 13/00Z 13/01Z 13/02Z 13/03Z 13/04Z 13/05Z 13/06Z 13/07Z 13/08Z 13/09Z 13/10Z 13/11Z
Type OBS PRVL PRVL PRVL PRVL PRVL PRVL PRVL PRVL PRVL PRVL PRVL PRVL PRVL
VIS 10 >6 >6 >6 >6 >6 >6 >6 >6 >6 >6 >6 >6 >6
CIG -- -- -- -- -- -- -- -- -- -- -- -- -- --
Cover FEW SCT SCT SCT SCT SCT SCT SCT SCT SCT SCT SCT SCT SCT
FltCat VFR VFR VFR VFR VFR VFR VFR VFR VFR VFR VFR VFR VFR VFR
WX -- -- -- -- -- -- -- -- -- -- -- -- -- --
WDir 80 70 70 70 160 160 160 160 200 200 200 200 200 200
WSpd 8 8 8 8 9 9 9 9 10 10 10 10 10 10
WGst -- -- -- -- -- -- -- -- -- -- -- -- -- --
R07/25
XWnd 1 3 3 3 -8 -8 -8 -8 -9 -9 -9 -9 -9 -9
HWnd 8 8 8 8 3 3 3 3 -3 -3 -3 -3 -3 -3
R08/26
XWnd 2 3 3 3 -8 -8 -8 -8 -9 -9 -9 -9 -9 -9
HWnd 8 7 7 7 3 3 3 3 -3 -3 -3 -3 -3 -3
R16/34
XWnd 8 7 7 7 3 3 3 3 -3 -3 -3 -3 -3 -3
HWnd -2 -3 -3 -3 8 8 8 8 9 9 9 9 9 9
R17/35
XWnd 8 7 7 7 3 3 3 3 -3 -3 -3 -3 -3 -3
HWnd -2 -3 -3 -3 8 8 8 8 9 9 9 9 9 9

NOTE: TEMPO conditions in [brackets]. Keep in mind TEMPO conditions might be better (lower impact) than prevailing conditions.

Raw TAF
KDEN 122058Z 1221/1324 07008KT P6SM FEW100 SCT220
  FM130200 16009KT P6SM SCT220
  FM130600 20010KT P6SM FEW110 SCT220
  FM131300 26008KT P6SM SCT220


Raw METAR
KDEN 122153Z 08008KT 10SM FEW100 FEW150 FEW220 09/00 A3024 RMK AO2 SLP226 T00940000
KDEN 122053Z 07008KT 10SM FEW100 FEW150 FEW220 11/M01 A3024 RMK AO2 SLP226 T01061006 56018
KDEN 121953Z 07006KT 10SM FEW100 FEW150 SCT220 11/M01 A3026 RMK AO2 SLP230 T01061011

METAR Board
Radar Display
Forecast Discussion

TAF Board Legend

Potential Impact
Threat None Slight Moderate High
Visibility (sm) ≥5.1 5.1>X≥3 3>X≥1 <1
Ceiling (100 ft) ≥30.1 30.1>X≥10 10>X≥5 <5
Wind Speed (kt) <10 10≤X<20 20≤X<30 ≥30
Wind Gust (kt) <15 15≤X<25 25≤X<35 ≥35
Weather No Wx Reported VCTS,-TS,-FZRA,SN TS,FZRA +TS,+FZRA,+SN